Time;durP1;ratioP1;P1;durP2;ratioP2;P2;SDS_P1;SDS_P2;PMS_P1;PMS_P2;Temp;Humidity;BMP_temperature;BMP_pressure;BME280_temperature;BME280_humidity;BME280_pressure;Samples;Min_cycle;Max_cycle;Signal;HPM_P1;HPM_P2
2021/06/15 00:02:22;;;;;;;2.22;0.93;;;19.00;99.90;;;;;;20722587;28;20099;-48
2021/06/15 00:12:23;;;;;;;2.33;1.00;;;19.00;99.90;;;;;;20727811;28;20049;-49
2021/06/15 00:22:24;;;;;;;2.45;1.27;;;18.80;99.90;;;;;;20725977;28;20056;-48
2021/06/15 00:32:25;;;;;;;1.10;0.38;;;18.90;99.90;;;;;;20723156;28;20125;-48
2021/06/15 00:42:27;;;;;;;2.38;0.50;;;18.70;99.90;;;;;;20759506;28;20125;-48
2021/06/15 00:52:28;;;;;;;1.35;0.60;;;18.50;99.90;;;;;;20725040;28;20044;-48
2021/06/15 01:02:31;;;;;;;1.33;0.45;;;18.30;99.90;;;;;;20733681;28;20038;-49
2021/06/15 01:13:09;;;;;;;1.33;0.40;;;18.40;99.90;;;;;;20739929;28;20041;-48
2021/06/15 01:23:29;;;;;;;1.50;0.47;;;18.40;99.90;;;;;;20716377;28;20125;-48
2021/06/15 01:33:37;;;;;;;0.70;0.40;;;18.30;99.90;;;;;;20730247;28;20050;-48
2021/06/15 01:43:45;;;;;;;2.47;0.60;;;18.30;99.90;;;;;;20809843;28;20073;-48
2021/06/15 01:53:57;;;;;;;1.85;0.45;;;18.30;99.90;;;;;;20817589;28;20041;-48
2021/06/15 02:03:59;;;;;;;1.08;0.30;;;18.20;99.90;;;;;;20818921;28;20171;-48
2021/06/15 02:14:03;;;;;;;3.80;1.40;;;18.20;99.90;;;;;;20820056;28;20044;-48
2021/06/15 02:24:06;;;;;;;1.10;0.30;;;18.10;99.90;;;;;;20775362;28;20100;-48
2021/06/15 02:34:13;;;;;;;2.25;0.63;;;17.90;99.90;;;;;;20729114;28;20038;-48
2021/06/15 02:44:18;;;;;;;2.05;0.40;;;17.90;99.90;;;;;;20729407;28;20045;-49
2021/06/15 02:54:27;;;;;;;0.88;0.20;;;17.80;99.90;;;;;;20725695;28;20156;-48
2021/06/15 03:04:29;;;;;;;0.75;0.30;;;17.70;99.90;;;;;;20729537;28;20050;-48
2021/06/15 03:14:31;;;;;;;0.75;0.13;;;17.80;99.90;;;;;;20708070;28;20120;-48
2021/06/15 03:24:36;;;;;;;3.30;0.25;;;17.90;99.90;;;;;;20733883;28;20045;-48
2021/06/15 03:34:46;;;;;;;0.93;0.38;;;17.90;99.90;;;;;;20720242;28;20077;-48
2021/06/15 03:44:54;;;;;;;1.48;0.70;;;17.70;99.90;;;;;;20721268;28;20501;-48
2021/06/15 03:55:00;;;;;;;3.13;0.40;;;17.70;99.90;;;;;;20729834;28;20523;-48
2021/06/15 04:05:04;;;;;;;0.57;0.30;;;17.60;99.90;;;;;;20717291;28;20038;-48
2021/06/15 04:15:08;;;;;;;0.93;0.10;;;17.60;99.90;;;;;;20718852;28;20158;-48
2021/06/15 04:25:11;;;;;;;0.20;0.10;;;17.60;99.90;;;;;;20735854;28;20042;-48
2021/06/15 04:35:13;;;;;;;7.93;0.28;;;17.50;99.90;;;;;;20729536;28;20104;-48
2021/06/15 04:45:15;;;;;;;1.95;0.20;;;17.30;99.90;;;;;;20717039;28;20072;-48
2021/06/15 04:55:22;;;;;;;0.68;0.20;;;17.30;99.90;;;;;;20716324;28;20132;-48
2021/06/15 05:05:24;;;;;;;0.40;0.20;;;17.40;99.90;;;;;;20731157;28;20416;-48
2021/06/15 05:15:28;;;;;;;1.67;0.25;;;17.30;99.90;;;;;;20729926;28;20033;-48
2021/06/15 05:25:29;;;;;;;1.38;0.22;;;17.20;99.90;;;;;;20747969;28;20483;-47
2021/06/15 05:35:31;;;;;;;1.20;0.40;;;17.30;99.90;;;;;;20740544;28;20378;-47
2021/06/15 05:45:32;;;;;;;3.40;0.52;;;17.30;99.90;;;;;;20738774;28;20058;-49
2021/06/15 05:55:33;;;;;;;3.00;0.38;;;17.30;99.90;;;;;;20751348;28;20041;-50
2021/06/15 06:15:56;;;;;;;1.55;0.28;;;17.40;99.90;;;;;;20809590;28;20128;-50
2021/06/15 06:25:58;;;;;;;3.60;0.30;;;17.30;99.90;;;;;;20810227;28;20055;-50
2021/06/15 06:35:59;;;;;;;4.28;0.57;;;17.40;99.90;;;;;;20809942;28;20136;-50
2021/06/15 06:46:00;;;;;;;1.77;0.28;;;17.50;99.90;;;;;;20799431;28;20054;-50
2021/06/15 06:56:01;;;;;;;1.27;0.73;;;17.50;99.90;;;;;;20727870;28;20041;-50
2021/06/15 07:06:03;;;;;;;1.35;0.30;;;17.70;99.90;;;;;;20735122;28;20064;-50
2021/06/15 07:16:04;;;;;;;1.50;0.40;;;17.80;99.90;;;;;;20736985;28;20481;-49
2021/06/15 07:26:05;;;;;;;2.92;0.45;;;18.10;99.90;;;;;;20743553;28;20049;-49
2021/06/15 07:36:06;;;;;;;1.30;0.30;;;18.30;99.90;;;;;;20736224;28;20219;-49
2021/06/15 07:46:08;;;;;;;1.27;0.30;;;18.50;99.90;;;;;;20737756;28;20049;-49
2021/06/15 07:56:09;;;;;;;3.92;0.73;;;18.40;99.90;;;;;;20749794;28;20065;-49
2021/06/15 08:06:11;;;;;;;1.25;0.20;;;18.50;99.90;;;;;;20753065;28;20052;-49
2021/06/15 08:16:13;;;;;;;2.90;0.70;;;19.00;99.90;;;;;;20743354;28;20056;-50
2021/06/15 08:26:14;;;;;;;0.40;0.15;;;19.00;99.90;;;;;;20748133;28;20056;-48
2021/06/15 08:36:15;;;;;;;1.33;0.20;;;19.10;99.90;;;;;;20738652;28;20045;-49
2021/06/15 08:46:17;;;;;;;0.70;0.20;;;19.50;99.90;;;;;;20745173;28;20054;-50
2021/06/15 08:56:25;;;;;;;2.22;0.43;;;19.60;99.90;;;;;;20749241;28;20072;-49
2021/06/15 09:06:26;;;;;;;1.00;0.30;;;19.60;99.90;;;;;;20763097;28;20050;-50
2021/06/15 09:16:32;;;;;;;2.97;0.35;;;19.90;99.90;;;;;;20762603;28;20044;-49
2021/06/15 09:26:52;;;;;;;1.05;0.30;;;20.20;99.90;;;;;;20757114;28;20069;-50
2021/06/15 09:36:53;;;;;;;7.93;0.43;;;20.40;99.90;;;;;;20744249;28;21391;-49
2021/06/15 09:47:04;;;;;;;0.25;0.10;;;20.50;99.90;;;;;;20748094;28;20062;-49
2021/06/15 09:57:06;;;;;;;2.28;0.70;;;20.80;99.90;;;;;;20744195;28;20057;-49
2021/06/15 10:07:07;;;;;;;1.42;0.22;;;21.00;99.90;;;;;;20742261;28;20045;-49
2021/06/15 10:17:11;;;;;;;2.25;0.55;;;21.10;99.90;;;;;;20739267;28;20033;-49
2021/06/15 10:27:13;;;;;;;2.47;0.63;;;21.30;99.90;;;;;;20743483;28;20037;-49
2021/06/15 10:37:32;;;;;;;2.00;0.30;;;21.50;99.90;;;;;;20744201;28;20038;-49
2021/06/15 10:47:34;;;;;;;4.38;0.30;;;21.70;99.90;;;;;;20729566;28;20077;-49
2021/06/15 10:57:51;;;;;;;2.92;0.30;;;21.60;99.90;;;;;;20722757;28;20062;-49
2021/06/15 11:08:12;;;;;;;1.70;0.20;;;21.40;99.90;;;;;;20802169;28;20045;-49
2021/06/15 11:18:14;;;;;;;1.80;0.40;;;21.80;99.90;;;;;;20803168;28;20120;-49
2021/06/15 11:28:41;;;;;;;0.73;0.30;;;22.30;99.90;;;;;;20801530;28;20053;-49
2021/06/15 11:39:21;;;;;;;0.80;0.27;;;22.20;99.90;;;;;;20820684;28;20500;-49
2021/06/15 11:49:22;;;;;;;2.20;1.15;;;22.20;99.90;;;;;;20806375;28;20053;-49
2021/06/15 11:59:23;;;;;;;3.03;0.25;;;23.00;99.90;;;;;;20807631;28;20053;-49
2021/06/15 12:09:25;;;;;;;4.25;0.73;;;22.40;99.90;;;;;;20794123;28;20052;-49
2021/06/15 12:19:36;;;;;;;2.45;0.98;;;22.50;99.90;;;;;;20803314;28;20446;-49
2021/06/15 12:29:37;;;;;;;3.33;1.02;;;22.60;98.70;;;;;;20800021;28;20059;-49
2021/06/15 12:39:40;;;;;;;3.85;0.30;;;23.10;99.10;;;;;;20799621;28;20494;-49
2021/06/15 12:49:52;;;;;;;1.52;0.50;;;22.40;99.50;;;;;;20804440;28;20147;-49
2021/06/15 13:00:03;;;;;;;0.52;0.25;;;23.30;99.30;;;;;;20802596;28;20049;-49
2021/06/15 13:10:17;;;;;;;0.82;0.47;;;23.60;98.80;;;;;;20736133;28;20053;-49
2021/06/15 13:20:22;;;;;;;2.13;0.65;;;23.30;97.60;;;;;;20721841;28;20042;-49
2021/06/15 13:30:35;;;;;;;0.73;0.50;;;22.80;98.50;;;;;;20725726;28;20069;-49
2021/06/15 13:40:46;;;;;;;3.45;0.88;;;22.70;99.40;;;;;;20746446;28;20041;-51
2021/06/15 13:50:49;;;;;;;2.05;0.50;;;23.30;98.20;;;;;;20824586;28;20106;-51
2021/06/15 14:00:50;;;;;;;0.75;0.30;;;22.90;98.30;;;;;;20830905;28;20396;-51
2021/06/15 14:10:52;;;;;;;6.68;1.55;;;22.80;98.10;;;;;;20831846;28;20053;-51
2021/06/15 14:20:54;;;;;;;1.17;0.30;;;22.50;99.10;;;;;;20821398;28;20508;-51
2021/06/15 14:30:56;;;;;;;2.60;0.60;;;22.30;99.10;;;;;;20744019;28;20107;-51
2021/06/15 14:40:57;;;;;;;2.50;1.17;;;21.90;99.20;;;;;;20735893;28;20053;-51
2021/06/15 14:50:58;;;;;;;2.00;0.82;;;22.30;99.00;;;;;;20739876;28;20184;-51
2021/06/15 15:00:59;;;;;;;0.93;0.50;;;21.90;99.70;;;;;;20738746;28;20038;-49
2021/06/15 15:11:00;;;;;;;0.80;0.38;;;21.90;99.90;;;;;;20737920;28;20128;-48
2021/06/15 15:21:02;;;;;;;1.02;0.45;;;21.70;99.90;;;;;;20801011;28;20033;-49
2021/06/15 15:31:05;;;;;;;2.15;0.77;;;21.80;99.90;;;;;;20816984;28;20045;-49
2021/06/15 15:41:07;;;;;;;1.55;0.40;;;21.70;99.90;;;;;;20796884;28;20540;-49
2021/06/15 15:51:10;;;;;;;2.53;0.80;;;21.70;99.90;;;;;;20747247;28;20048;-49
2021/06/15 16:01:11;;;;;;;1.80;0.73;;;21.70;99.90;;;;;;20749305;28;20046;-49
2021/06/15 16:11:15;;;;;;;1.77;0.50;;;22.00;99.90;;;;;;20721431;28;20072;-49
2021/06/15 16:21:17;;;;;;;3.83;0.40;;;21.80;99.90;;;;;;20735693;28;20038;-49
2021/06/15 16:31:18;;;;;;;3.13;0.60;;;21.80;99.90;;;;;;20729346;28;20068;-49
2021/06/15 16:41:23;;;;;;;1.30;0.40;;;21.60;99.90;;;;;;20724243;28;20045;-49
2021/06/15 16:51:25;;;;;;;2.70;0.57;;;21.40;99.90;;;;;;20724074;28;20045;-49
2021/06/15 17:01:26;;;;;;;0.90;0.30;;;21.20;99.90;;;;;;20729409;28;20051;-49
2021/06/15 17:11:28;;;;;;;1.92;0.40;;;21.20;99.90;;;;;;20707524;28;20064;-49
2021/06/15 17:21:32;;;;;;;2.00;0.95;;;21.10;99.90;;;;;;20770996;28;20053;-49
2021/06/15 17:31:33;;;;;;;2.75;0.30;;;21.00;99.90;;;;;;20715836;28;20804;-49
2021/06/15 17:41:35;;;;;;;1.92;0.80;;;21.00;99.90;;;;;;20738156;28;20131;-49
2021/06/15 17:51:37;;;;;;;0.90;0.30;;;21.00;99.90;;;;;;20731812;28;20049;-49
2021/06/15 18:01:38;;;;;;;2.08;0.30;;;20.80;99.90;;;;;;20728532;28;20046;-49
2021/06/15 18:11:39;;;;;;;1.95;1.10;;;20.70;99.90;;;;;;20726768;28;20155;-48
2021/06/15 18:21:40;;;;;;;2.08;0.50;;;20.50;99.90;;;;;;20728887;28;20042;-49
2021/06/15 18:31:42;;;;;;;0.98;0.20;;;20.40;99.90;;;;;;20725066;28;20100;-49
2021/06/15 18:41:44;;;;;;;0.40;0.20;;;20.30;99.90;;;;;;20805105;28;20034;-49
2021/06/15 18:51:45;;;;;;;0.20;0.10;;;20.30;99.90;;;;;;20822580;28;20045;-49
2021/06/15 19:01:48;;;;;;;1.48;0.20;;;20.10;99.90;;;;;;20793742;28;20169;-50
2021/06/15 19:11:49;;;;;;;0.60;0.30;;;20.10;99.90;;;;;;20814038;28;20060;-50
2021/06/15 19:21:50;;;;;;;0.73;0.40;;;19.90;99.90;;;;;;20787409;28;20033;-50
2021/06/15 19:31:51;;;;;;;1.90;0.28;;;20.00;99.90;;;;;;20735544;28;20045;-50
2021/06/15 19:41:53;;;;;;;0.45;0.30;;;20.00;99.90;;;;;;20711488;28;20041;-50
2021/06/15 19:51:54;;;;;;;0.73;0.20;;;19.80;99.90;;;;;;20731813;28;20060;-50
2021/06/15 20:01:55;;;;;;;2.92;0.35;;;19.70;99.90;;;;;;20701870;28;20038;-50
2021/06/15 20:11:57;;;;;;;0.88;0.40;;;19.50;99.90;;;;;;20718374;28;20753;-50
2021/06/15 20:21:58;;;;;;;1.20;0.60;;;19.30;99.90;;;;;;20723966;28;20045;-50
2021/06/15 20:31:59;;;;;;;4.00;0.60;;;19.20;99.90;;;;;;20722764;28;20057;-50
2021/06/15 20:42:01;;;;;;;1.20;0.30;;;19.10;99.90;;;;;;20755206;28;20049;-50
2021/06/15 20:52:02;;;;;;;1.52;0.50;;;19.00;99.90;;;;;;20810143;28;20266;-50
2021/06/15 21:02:04;;;;;;;2.05;0.90;;;18.70;99.90;;;;;;20744879;28;20046;-50
2021/06/15 21:12:09;;;;;;;0.50;0.20;;;18.60;99.90;;;;;;20728012;28;20081;-49
2021/06/15 21:22:10;;;;;;;1.58;1.02;;;18.40;99.90;;;;;;20732454;28;20113;-49
2021/06/15 21:32:11;;;;;;;1.38;0.30;;;18.40;99.90;;;;;;20731422;28;20041;-49
2021/06/15 21:42:12;;;;;;;0.80;0.30;;;18.30;99.90;;;;;;20732631;28;20045;-49
2021/06/15 21:52:14;;;;;;;3.30;0.40;;;18.30;99.90;;;;;;20730771;28;20050;-49
2021/06/15 22:02:15;;;;;;;1.63;0.52;;;18.10;99.90;;;;;;20732984;28;20042;-49
2021/06/15 22:12:17;;;;;;;1.05;0.60;;;17.90;99.90;;;;;;20730667;28;20052;-49
2021/06/15 22:22:19;;;;;;;3.95;0.52;;;17.90;99.90;;;;;;20729775;28;20046;-49
2021/06/15 22:32:20;;;;;;;3.05;0.55;;;17.70;99.90;;;;;;20727502;28;20629;-49
2021/06/15 22:42:22;;;;;;;1.30;0.55;;;17.60;99.90;;;;;;20779855;28;20049;-49
2021/06/15 22:52:23;;;;;;;0.73;0.30;;;17.40;99.90;;;;;;20810723;28;20111;-49
2021/06/15 23:02:24;;;;;;;1.55;0.50;;;17.20;99.90;;;;;;20813284;28;20128;-49
2021/06/15 23:12:26;;;;;;;1.13;0.52;;;17.00;99.90;;;;;;20729718;28;20048;-49
2021/06/15 23:22:28;;;;;;;1.55;0.40;;;17.00;99.90;;;;;;20726874;28;20046;-49
2021/06/15 23:32:29;;;;;;;3.35;1.25;;;16.90;99.90;;;;;;20724012;28;20085;-49
2021/06/15 23:42:30;;;;;;;2.20;0.88;;;16.80;99.90;;;;;;20723709;28;20137;-49
2021/06/15 23:52:31;;;;;;;3.25;1.35;;;16.70;99.90;;;;;;20727386;28;20147;-49
